Time;durP1;ratioP1;P1;durP2;ratioP2;P2;SDS_P1;SDS_P2;PMS_P1;PMS_P2;Temp;Humidity;BMP_temperature;BMP_pressure;BME280_temperature;BME280_humidity;BME280_pressure;Samples;Min_cycle;Max_cycle;Signal;HPM_P1;HPM_P2
2022/08/09 00:00:42;;;;;;;3.38;2.88;;;;;;;;;;2069771;28;20026;-63
2022/08/09 00:02:01;;;;;;;3.20;2.90;;;;;;;;;;2072023;28;20034;-63
2022/08/09 00:03:20;;;;;;;3.17;2.95;;;;;;;;;;2072240;28;20030;-62
2022/08/09 00:04:39;;;;;;;4.38;2.75;;;;;;;;;;2070612;28;20493;-63
2022/08/09 00:05:58;;;;;;;2.90;2.70;;;;;;;;;;2070461;28;20045;-62
2022/08/09 00:07:17;;;;;;;2.90;2.70;;;;;;;;;;2072326;28;20069;-63
2022/08/09 00:08:36;;;;;;;2.58;2.40;;;;;;;;;;2070396;28;20030;-63
2022/08/09 00:09:55;;;;;;;3.22;2.92;;;;;;;;;;2070948;28;20034;-62
2022/08/09 00:11:14;;;;;;;2.75;2.53;;;;;;;;;;2070153;28;20026;-62
2022/08/09 00:12:33;;;;;;;3.47;2.60;;;;;;;;;;2071127;28;20026;-62
2022/08/09 00:13:51;;;;;;;2.70;2.50;;;;;;;;;;2070604;28;20030;-62
2022/08/09 00:15:10;;;;;;;2.65;2.42;;;;;;;;;;2069273;28;20483;-62
2022/08/09 00:16:29;;;;;;;2.70;2.50;;;;;;;;;;2071291;28;20382;-63
2022/08/09 00:17:48;;;;;;;3.47;2.65;;;;;;;;;;2071947;28;20054;-63
2022/08/09 00:19:07;;;;;;;3.55;2.35;;;;;;;;;;2070661;28;20029;-62
2022/08/09 00:20:26;;;;;;;3.17;2.75;;;;;;;;;;2073683;28;20029;-62
2022/08/09 00:21:45;;;;;;;4.65;2.63;;;;;;;;;;2073466;28;20053;-61
2022/08/09 00:23:04;;;;;;;2.80;2.60;;;;;;;;;;2073584;28;20030;-62
2022/08/09 00:24:26;;;;;;;2.83;2.35;;;;;;;;;;2071891;28;20030;-62
2022/08/09 00:25:45;;;;;;;2.90;2.60;;;;;;;;;;2071515;28;20429;-63
2022/08/09 00:27:04;;;;;;;4.03;3.00;;;;;;;;;;2073844;28;20041;-63
2022/08/09 00:28:23;;;;;;;2.47;2.30;;;;;;;;;;2072248;28;20038;-63
2022/08/09 00:29:42;;;;;;;3.20;2.60;;;;;;;;;;2073662;28;20022;-63
2022/08/09 00:31:01;;;;;;;3.03;2.80;;;;;;;;;;2072627;28;20033;-62
2022/08/09 00:32:21;;;;;;;3.90;2.92;;;;;;;;;;2073761;28;20029;-63
2022/08/09 00:33:42;;;;;;;3.08;2.45;;;;;;;;;;2073963;28;20117;-62
2022/08/09 00:35:02;;;;;;;3.05;2.80;;;;;;;;;;2073324;28;20026;-63
2022/08/09 00:36:21;;;;;;;2.45;2.25;;;;;;;;;;2072023;28;20026;-62
2022/08/09 00:37:40;;;;;;;3.63;2.70;;;;;;;;;;2072631;28;20033;-63
2022/08/09 00:38:59;;;;;;;3.33;2.75;;;;;;;;;;2074079;28;20037;-62
2022/08/09 00:40:18;;;;;;;3.15;2.85;;;;;;;;;;2073656;28;20057;-62
2022/08/09 00:41:37;;;;;;;3.70;2.92;;;;;;;;;;2073713;28;20407;-62
2022/08/09 00:42:56;;;;;;;5.18;2.60;;;;;;;;;;2072575;28;20057;-63
2022/08/09 00:44:15;;;;;;;7.28;3.30;;;;;;;;;;2073228;28;20502;-62
2022/08/09 00:45:34;;;;;;;2.55;2.35;;;;;;;;;;2073209;28;20058;-62
2022/08/09 00:46:54;;;;;;;4.13;2.83;;;;;;;;;;2074004;28;20041;-62
2022/08/09 00:48:13;;;;;;;5.82;2.90;;;;;;;;;;2072071;28;20022;-62
2022/08/09 00:49:33;;;;;;;4.90;2.65;;;;;;;;;;2073022;28;20500;-62
2022/08/09 00:50:52;;;;;;;2.65;2.45;;;;;;;;;;2073399;28;20061;-62
2022/08/09 00:52:11;;;;;;;2.80;2.60;;;;;;;;;;2073292;28;20444;-62
2022/08/09 00:53:30;;;;;;;2.75;2.55;;;;;;;;;;2071816;28;20042;-62
2022/08/09 00:54:52;;;;;;;2.60;2.40;;;;;;;;;;2070751;28;20030;-62
2022/08/09 00:56:11;;;;;;;2.60;2.40;;;;;;;;;;2071595;28;20428;-63
2022/08/09 00:57:30;;;;;;;7.38;3.22;;;;;;;;;;2072334;28;20030;-63
2022/08/09 00:58:50;;;;;;;4.53;2.97;;;;;;;;;;2071031;28;20042;-62
2022/08/09 01:00:09;;;;;;;3.28;2.85;;;;;;;;;;2071674;28;20034;-63
2022/08/09 01:01:32;;;;;;;3.65;3.00;;;;;;;;;;2071080;28;20034;-63
2022/08/09 01:02:54;;;;;;;3.28;2.78;;;;;;;;;;2071907;28;20030;-62
2022/08/09 01:04:28;;;;;;;2.70;2.50;;;;;;;;;;2072949;28;20042;-62
2022/08/09 01:05:59;;;;;;;3.17;2.40;;;;;;;;;;2073538;28;20030;-62
2022/08/09 01:07:26;;;;;;;3.28;2.88;;;;;;;;;;2073645;28;20069;-62
2022/08/09 01:09:07;;;;;;;4.05;2.78;;;;;;;;;;2071661;28;20585;-63
2022/08/09 01:10:45;;;;;;;5.03;2.95;;;;;;;;;;2068614;28;20434;-62
2022/08/09 01:12:14;;;;;;;3.47;3.17;;;;;;;;;;2069645;28;20029;-62
2022/08/09 01:13:50;;;;;;;3.40;3.10;;;;;;;;;;2071293;28;20029;-63
2022/08/09 01:15:12;;;;;;;5.00;3.17;;;;;;;;;;2071965;28;20066;-62
2022/08/09 01:16:33;;;;;;;3.55;2.78;;;;;;;;;;2073713;28;20042;-62
2022/08/09 01:18:01;;;;;;;3.45;3.15;;;;;;;;;;2072026;28;20128;-62
2022/08/09 01:19:39;;;;;;;3.25;2.78;;;;;;;;;;2071223;28;20482;-62
2022/08/09 01:21:07;;;;;;;3.85;3.55;;;;;;;;;;2073694;28;20041;-62
2022/08/09 01:22:32;;;;;;;4.80;3.35;;;;;;;;;;2074161;28;20474;-63
2022/08/09 01:24:10;;;;;;;3.60;2.92;;;;;;;;;;2070999;28;20034;-62
2022/08/09 01:25:43;;;;;;;3.45;3.03;;;;;;;;;;2072073;28;20034;-62
2022/08/09 01:27:07;;;;;;;3.28;2.83;;;;;;;;;;2072672;28;20030;-62
2022/08/09 01:28:27;;;;;;;3.00;2.70;;;;;;;;;;2072739;28;20042;-62
2022/08/09 01:29:54;;;;;;;3.33;3.00;;;;;;;;;;2071986;28;20494;-62
2022/08/09 01:31:15;;;;;;;4.65;2.80;;;;;;;;;;2071604;28;20034;-62
2022/08/09 01:32:36;;;;;;;3.63;3.20;;;;;;;;;;2072849;28;20475;-62
2022/08/09 01:33:57;;;;;;;3.20;2.80;;;;;;;;;;2079472;28;20474;-62
2022/08/09 01:35:25;;;;;;;4.68;2.80;;;;;;;;;;2075517;28;20030;-62
2022/08/09 01:36:45;;;;;;;4.55;3.00;;;;;;;;;;2071656;28;20045;-62
2022/08/09 01:38:08;;;;;;;4.40;2.80;;;;;;;;;;2072148;28;20030;-62
2022/08/09 01:39:27;;;;;;;5.47;2.92;;;;;;;;;;2071760;28;20394;-62
2022/08/09 01:40:48;;;;;;;3.95;3.22;;;;;;;;;;2073406;28;20108;-62
2022/08/09 01:42:07;;;;;;;3.28;2.97;;;;;;;;;;2073511;28;20037;-62
2022/08/09 01:43:27;;;;;;;3.70;2.78;;;;;;;;;;2072734;28;20026;-62
2022/08/09 01:44:47;;;;;;;3.22;2.90;;;;;;;;;;2072235;28;20064;-62
2022/08/09 01:46:07;;;;;;;3.70;2.97;;;;;;;;;;2072120;28;20026;-62
2022/08/09 01:47:27;;;;;;;4.43;2.72;;;;;;;;;;2072785;28;20029;-63
2022/08/09 01:48:47;;;;;;;6.18;3.03;;;;;;;;;;2067987;28;20022;-62
2022/08/09 01:50:07;;;;;;;3.42;2.67;;;;;;;;;;2072012;28;20466;-62
2022/08/09 01:51:27;;;;;;;2.95;2.50;;;;;;;;;;2071715;28;20490;-62
2022/08/09 01:52:46;;;;;;;3.38;3.08;;;;;;;;;;2072832;28;20108;-62
2022/08/09 01:54:05;;;;;;;3.00;2.80;;;;;;;;;;2071773;28;20025;-63
2022/08/09 01:55:25;;;;;;;5.32;2.72;;;;;;;;;;2071275;28;20030;-62
2022/08/09 01:56:45;;;;;;;4.32;2.55;;;;;;;;;;2076704;28;20021;-62
2022/08/09 01:58:05;;;;;;;4.03;2.63;;;;;;;;;;2073666;28;20034;-62
2022/08/09 01:59:24;;;;;;;3.25;2.78;;;;;;;;;;2071241;28;20569;-63
2022/08/09 02:00:44;;;;;;;6.47;2.80;;;;;;;;;;2072245;28;20394;-62
2022/08/09 02:02:04;;;;;;;2.95;2.65;;;;;;;;;;2071530;28;20394;-62
2022/08/09 02:03:23;;;;;;;3.25;2.95;;;;;;;;;;2073480;28;20030;-62
2022/08/09 02:04:42;;;;;;;4.53;2.85;;;;;;;;;;2072209;28;20074;-62
2022/08/09 02:06:03;;;;;;;2.92;2.70;;;;;;;;;;2072393;28;20022;-62
2022/08/09 02:07:25;;;;;;;3.78;2.60;;;;;;;;;;2072771;28;20026;-62
2022/08/09 02:08:44;;;;;;;4.68;2.70;;;;;;;;;;2070523;28;20021;-62
2022/08/09 02:10:06;;;;;;;3.42;3.00;;;;;;;;;;2070630;28;20045;-62
2022/08/09 02:11:27;;;;;;;5.30;2.85;;;;;;;;;;2073195;28;20029;-62
2022/08/09 02:12:47;;;;;;;2.88;2.60;;;;;;;;;;2071272;28;20152;-63
2022/08/09 02:14:06;;;;;;;3.58;3.28;;;;;;;;;;2073209;28;20046;-63
2022/08/09 02:15:27;;;;;;;3.30;3.10;;;;;;;;;;2071023;28;20038;-63
2022/08/09 02:16:46;;;;;;;6.78;3.10;;;;;;;;;;2072280;28;20030;-63
2022/08/09 02:18:06;;;;;;;3.58;3.17;;;;;;;;;;2070746;28;20502;-63
2022/08/09 02:19:25;;;;;;;3.38;3.08;;;;;;;;;;2072673;28;20034;-63
2022/08/09 02:20:45;;;;;;;3.35;3.05;;;;;;;;;;2072706;28;20021;-63
2022/08/09 02:22:08;;;;;;;3.17;2.88;;;;;;;;;;2072402;28;20108;-63
2022/08/09 02:23:27;;;;;;;;;;;;;;;;;;2071438;28;20058;-63
2022/08/09 02:24:47;;;;;;;3.15;2.95;;;;;;;;;;2072497;28;20277;-63
2022/08/09 02:26:06;;;;;;;3.33;3.08;;;;;;;;;;2071749;28;20033;-63
2022/08/09 02:27:28;;;;;;;3.08;2.88;;;;;;;;;;2072604;28;20030;-63
2022/08/09 02:28:50;;;;;;;3.85;3.50;;;;;;;;;;2071210;28;20546;-63
2022/08/09 02:30:09;;;;;;;3.17;2.88;;;;;;;;;;2071544;28;20125;-63
2022/08/09 02:31:34;;;;;;;3.22;2.90;;;;;;;;;;2072085;28;20034;-63
2022/08/09 02:32:53;;;;;;;3.58;3.28;;;;;;;;;;2072173;28;20026;-63
2022/08/09 02:34:14;;;;;;;3.85;3.05;;;;;;;;;;2072602;28;20022;-63
2022/08/09 02:35:35;;;;;;;4.40;3.35;;;;;;;;;;2071070;28;20034;-63
2022/08/09 02:36:54;;;;;;;2.88;2.67;;;;;;;;;;2072007;28;20106;-63
2022/08/09 02:38:14;;;;;;;3.13;2.83;;;;;;;;;;2072114;28;20046;-63
2022/08/09 02:39:35;;;;;;;4.28;3.30;;;;;;;;;;2072648;28;20030;-63
2022/08/09 02:40:57;;;;;;;4.53;3.25;;;;;;;;;;2071907;28;20125;-63
2022/08/09 02:42:21;;;;;;;3.33;3.03;;;;;;;;;;2072894;28;20430;-63
2022/08/09 02:43:41;;;;;;;4.10;3.45;;;;;;;;;;2072223;28;20117;-63
2022/08/09 02:45:20;;;;;;;3.90;2.97;;;;;;;;;;2071490;28;20034;-63
2022/08/09 02:46:39;;;;;;;3.95;2.83;;;;;;;;;;2073225;28;20030;-63
2022/08/09 02:48:04;;;;;;;4.60;3.25;;;;;;;;;;2072549;28;20034;-63
2022/08/09 02:49:23;;;;;;;3.50;2.80;;;;;;;;;;2071792;28;20025;-63
2022/08/09 02:50:47;;;;;;;2.83;2.42;;;;;;;;;;2070609;28;20034;-63
2022/08/09 02:52:08;;;;;;;6.60;3.45;;;;;;;;;;2072564;28;20502;-63
2022/08/09 02:53:30;;;;;;;2.97;2.40;;;;;;;;;;2071729;28;20479;-63
2022/08/09 02:54:50;;;;;;;3.20;2.90;;;;;;;;;;2072988;28;20494;-63
2022/08/09 02:56:09;;;;;;;3.35;3.15;;;;;;;;;;2072783;28;20049;-63
2022/08/09 02:57:29;;;;;;;4.57;2.97;;;;;;;;;;2072935;28;20025;-63
2022/08/09 02:58:48;;;;;;;4.40;4.00;;;;;;;;;;2071153;28;20026;-63
2022/08/09 03:00:10;;;;;;;3.03;2.80;;;;;;;;;;2065936;28;20025;-63
2022/08/09 03:01:30;;;;;;;3.35;3.10;;;;;;;;;;2070954;28;20042;-63
2022/08/09 03:02:53;;;;;;;5.28;3.78;;;;;;;;;;2071635;28;20451;-63
2022/08/09 03:04:12;;;;;;;3.22;2.97;;;;;;;;;;2071792;28;20046;-63
2022/08/09 03:05:32;;;;;;;3.58;3.28;;;;;;;;;;2071963;28;20030;-63
2022/08/09 03:06:51;;;;;;;3.72;3.08;;;;;;;;;;2072146;28;20034;-63
2022/08/09 03:08:12;;;;;;;3.75;3.40;;;;;;;;;;2072561;28;20034;-63
2022/08/09 03:09:31;;;;;;;3.67;2.97;;;;;;;;;;2070895;28;20030;-63
2022/08/09 03:10:51;;;;;;;3.15;2.92;;;;;;;;;;2070549;28;20042;-63
2022/08/09 03:12:11;;;;;;;5.43;3.55;;;;;;;;;;2072834;28;20145;-63
2022/08/09 03:13:30;;;;;;;5.82;3.15;;;;;;;;;;2069059;28;20029;-63
2022/08/09 03:14:49;;;;;;;4.03;3.65;;;;;;;;;;2071619;28;20026;-63
2022/08/09 03:16:09;;;;;;;5.45;4.00;;;;;;;;;;2072575;28;20034;-63
2022/08/09 03:17:28;;;;;;;3.60;3.08;;;;;;;;;;2071665;28;20025;-63
2022/08/09 03:18:47;;;;;;;4.07;3.30;;;;;;;;;;2070978;28;20021;-63
2022/08/09 03:20:07;;;;;;;3.83;3.40;;;;;;;;;;2072216;28;20067;-63
2022/08/09 03:21:27;;;;;;;2.92;2.72;;;;;;;;;;2070774;28;20030;-63
2022/08/09 03:22:46;;;;;;;3.50;3.20;;;;;;;;;;2070570;28;20061;-63
2022/08/09 03:24:05;;;;;;;3.60;2.90;;;;;;;;;;2071620;28;20029;-63
2022/08/09 03:25:25;;;;;;;3.90;3.25;;;;;;;;;;2070534;28;20426;-63
2022/08/09 03:26:46;;;;;;;3.78;2.50;;;;;;;;;;2070787;28;20034;-63
2022/08/09 03:28:05;;;;;;;3.20;3.00;;;;;;;;;;2070118;28;20034;-63
2022/08/09 03:29:25;;;;;;;5.18;3.28;;;;;;;;;;2071288;28;20049;-63
2022/08/09 03:30:44;;;;;;;3.47;3.28;;;;;;;;;;2068826;28;20042;-63
2022/08/09 03:32:04;;;;;;;3.28;3.00;;;;;;;;;;2072358;28;20030;-63
2022/08/09 03:33:23;;;;;;;3.22;3.00;;;;;;;;;;2070672;28;20026;-63
2022/08/09 03:34:42;;;;;;;3.78;3.45;;;;;;;;;;2070872;28;20026;-63
2022/08/09 03:36:01;;;;;;;4.15;2.90;;;;;;;;;;2071773;28;20359;-63
2022/08/09 03:37:20;;;;;;;3.28;3.05;;;;;;;;;;2071243;28;20385;-63
2022/08/09 03:38:40;;;;;;;5.18;3.40;;;;;;;;;;2070470;28;20108;-63
2022/08/09 03:39:59;;;;;;;3.30;3.10;;;;;;;;;;2072762;28;20030;-63
2022/08/09 03:41:18;;;;;;;4.57;2.97;;;;;;;;;;2069974;28;20061;-63
2022/08/09 03:42:37;;;;;;;3.30;3.03;;;;;;;;;;2072554;28;20034;-63
2022/08/09 03:43:56;;;;;;;3.83;2.85;;;;;;;;;;2070586;28;20034;-63
2022/08/09 03:45:15;;;;;;;3.10;2.90;;;;;;;;;;2071664;28;20438;-63
2022/08/09 03:46:35;;;;;;;3.33;3.13;;;;;;;;;;2072095;28;20034;-63
2022/08/09 03:47:54;;;;;;;4.15;3.30;;;;;;;;;;2071084;28;20109;-63
2022/08/09 03:49:13;;;;;;;3.72;3.25;;;;;;;;;;2070663;28;20045;-63
2022/08/09 03:50:33;;;;;;;3.15;2.95;;;;;;;;;;2071488;28;20026;-63
2022/08/09 03:51:55;;;;;;;3.53;3.25;;;;;;;;;;2071766;28;20049;-63
2022/08/09 03:53:14;;;;;;;2.72;2.53;;;;;;;;;;2072091;28;20026;-63
2022/08/09 03:54:36;;;;;;;4.22;3.00;;;;;;;;;;2069793;28;20022;-63
2022/08/09 03:55:55;;;;;;;3.85;3.53;;;;;;;;;;2070423;28;20034;-63
2022/08/09 03:57:14;;;;;;;5.30;3.03;;;;;;;;;;2071809;28;20482;-63
2022/08/09 03:58:33;;;;;;;3.42;3.13;;;;;;;;;;2070777;28;20025;-63
2022/08/09 03:59:52;;;;;;;4.60;2.90;;;;;;;;;;2071476;28;20026;-63
2022/08/09 04:01:11;;;;;;;3.20;3.00;;;;;;;;;;2071537;28;20090;-63
2022/08/09 04:02:30;;;;;;;4.13;3.05;;;;;;;;;;2071830;28;20038;-63
2022/08/09 04:03:51;;;;;;;4.65;3.10;;;;;;;;;;2072134;28;20057;-63
2022/08/09 04:05:10;;;;;;;3.15;2.88;;;;;;;;;;2070722;28;20026;-64
2022/08/09 04:06:29;;;;;;;3.25;3.05;;;;;;;;;;2069435;28;20038;-63
2022/08/09 04:07:48;;;;;;;3.05;2.85;;;;;;;;;;2072157;28;20033;-63
2022/08/09 04:09:07;;;;;;;3.30;3.00;;;;;;;;;;2072104;28;20037;-64
2022/08/09 04:10:26;;;;;;;4.20;3.22;;;;;;;;;;2072663;28;20033;-63
2022/08/09 04:11:45;;;;;;;4.25;2.88;;;;;;;;;;2072321;28;20041;-63
2022/08/09 04:13:08;;;;;;;7.20;3.83;;;;;;;;;;2069495;28;20034;-64
2022/08/09 04:14:27;;;;;;;3.35;3.10;;;;;;;;;;2071758;28;20045;-63
2022/08/09 04:15:46;;;;;;;4.00;3.58;;;;;;;;;;2071900;28;20018;-63
2022/08/09 04:17:05;;;;;;;3.67;3.38;;;;;;;;;;2071844;28;20495;-63
2022/08/09 04:18:24;;;;;;;4.18;3.40;;;;;;;;;;2072338;28;20050;-64
2022/08/09 04:19:43;;;;;;;5.72;3.20;;;;;;;;;;2071672;28;20022;-63
2022/08/09 04:21:02;;;;;;;7.13;3.75;;;;;;;;;;2069656;28;20026;-63
2022/08/09 04:22:21;;;;;;;8.48;4.35;;;;;;;;;;2071401;28;20109;-64
2022/08/09 04:23:40;;;;;;;5.28;3.65;;;;;;;;;;2072528;28;20022;-63
2022/08/09 04:24:59;;;;;;;6.82;5.07;;;;;;;;;;2073027;28;20037;-63
2022/08/09 04:26:18;;;;;;;4.68;4.28;;;;;;;;;;2071472;28;20468;-64
2022/08/09 04:27:41;;;;;;;4.97;3.28;;;;;;;;;;2072012;28;20374;-63
2022/08/09 04:29:00;;;;;;;4.57;3.47;;;;;;;;;;2071935;28;20045;-64
2022/08/09 04:30:21;;;;;;;8.15;4.13;;;;;;;;;;2072240;28;20437;-64
2022/08/09 04:31:40;;;;;;;6.32;3.67;;;;;;;;;;2069864;28;20603;-64
2022/08/09 04:33:00;;;;;;;5.53;3.67;;;;;;;;;;2071434;28;20498;-64
2022/08/09 04:34:19;;;;;;;4.80;3.55;;;;;;;;;;2071071;28;20057;-64
2022/08/09 04:35:41;;;;;;;6.47;4.10;;;;;;;;;;2071322;28;20018;-64
2022/08/09 04:37:00;;;;;;;7.25;3.83;;;;;;;;;;2070615;28;20038;-64
2022/08/09 04:38:19;;;;;;;9.88;3.72;;;;;;;;;;2071529;28;20076;-64
2022/08/09 04:39:38;;;;;;;5.50;3.80;;;;;;;;;;2070673;28;20015;-64
2022/08/09 04:40:57;;;;;;;5.05;3.83;;;;;;;;;;2069678;28;20018;-63
2022/08/09 04:42:16;;;;;;;7.75;3.85;;;;;;;;;;2070834;28;20026;-64
2022/08/09 04:43:36;;;;;;;5.53;3.47;;;;;;;;;;2071824;28;20026;-64
2022/08/09 04:44:55;;;;;;;5.80;3.55;;;;;;;;;;2072100;28;20395;-64
2022/08/09 04:46:14;;;;;;;4.20;3.45;;;;;;;;;;2071289;28;20435;-64
2022/08/09 04:47:33;;;;;;;6.32;3.47;;;;;;;;;;2070628;28;20471;-64
2022/08/09 04:48:52;;;;;;;4.28;3.88;;;;;;;;;;2069504;28;20041;-64
2022/08/09 04:50:11;;;;;;;7.00;3.60;;;;;;;;;;2071758;28;20061;-64
2022/08/09 04:51:30;;;;;;;4.25;3.58;;;;;;;;;;2069595;28;20034;-64
2022/08/09 04:52:49;;;;;;;4.38;3.90;;;;;;;;;;2070561;28;20026;-64
2022/08/09 04:54:08;;;;;;;6.05;3.67;;;;;;;;;;2070972;28;20022;-63
2022/08/09 04:55:27;;;;;;;6.70;3.40;;;;;;;;;;2072415;28;20057;-62
2022/08/09 04:56:46;;;;;;;3.33;3.03;;;;;;;;;;2072404;28;20943;-64
2022/08/09 04:58:05;;;;;;;10.23;4.20;;;;;;;;;;2071119;28;20050;-63
2022/08/09 04:59:24;;;;;;;4.82;3.47;;;;;;;;;;2072093;28;20022;-64
2022/08/09 05:00:43;;;;;;;2.83;2.60;;;;;;;;;;2071905;28;20851;-63
2022/08/09 05:02:02;;;;;;;3.90;3.00;;;;;;;;;;2071985;28;20030;-63
2022/08/09 05:03:22;;;;;;;4.50;2.85;;;;;;;;;;2070809;28;20871;-63
2022/08/09 05:04:41;;;;;;;3.15;2.53;;;;;;;;;;2069607;28;20030;-63
2022/08/09 05:06:00;;;;;;;2.60;2.40;;;;;;;;;;2071507;28;20030;-64
2022/08/09 05:07:19;;;;;;;2.30;2.20;;;;;;;;;;2072015;28;20034;-63
2022/08/09 05:08:38;;;;;;;2.90;2.67;;;;;;;;;;2073143;28;20432;-64
2022/08/09 05:09:57;;;;;;;6.55;2.63;;;;;;;;;;2072631;28;20066;-63
2022/08/09 05:11:16;;;;;;;2.80;2.55;;;;;;;;;;2072857;28;20061;-63
2022/08/09 05:12:35;;;;;;;4.18;2.70;;;;;;;;;;2070652;28;20033;-63
2022/08/09 05:13:53;;;;;;;2.70;2.45;;;;;;;;;;2072246;28;20037;-63
2022/08/09 05:15:12;;;;;;;3.70;2.15;;;;;;;;;;2071346;28;20026;-64
2022/08/09 05:16:32;;;;;;;2.83;2.60;;;;;;;;;;2070764;28;20030;-63
2022/08/09 05:17:50;;;;;;;4.10;2.70;;;;;;;;;;2071959;28;20054;-63
2022/08/09 05:19:09;;;;;;;3.33;2.88;;;;;;;;;;2071130;28;20486;-63
2022/08/09 05:20:28;;;;;;;3.35;2.30;;;;;;;;;;2072204;28;20034;-64
2022/08/09 05:21:50;;;;;;;3.35;2.47;;;;;;;;;;2072610;28;20026;-64
2022/08/09 05:23:09;;;;;;;3.80;2.75;;;;;;;;;;2071943;28;20037;-63
2022/08/09 05:24:28;;;;;;;4.00;2.65;;;;;;;;;;2072927;28;20122;-64
2022/08/09 05:25:47;;;;;;;4.22;2.53;;;;;;;;;;2072966;28;20783;-64
2022/08/09 05:27:06;;;;;;;2.85;2.63;;;;;;;;;;2074012;28;20022;-64
2022/08/09 05:28:25;;;;;;;3.10;2.42;;;;;;;;;;2071007;28;20445;-63
2022/08/09 05:29:44;;;;;;;4.75;2.55;;;;;;;;;;2072088;28;20038;-63
2022/08/09 05:31:03;;;;;;;4.63;2.55;;;;;;;;;;2070951;28;20038;-63
2022/08/09 05:32:22;;;;;;;3.08;2.67;;;;;;;;;;2071734;28;20021;-63
2022/08/09 05:33:41;;;;;;;3.15;2.60;;;;;;;;;;2071923;28;20600;-64
2022/08/09 05:35:00;;;;;;;3.70;2.40;;;;;;;;;;2071581;28;20038;-64
2022/08/09 05:36:19;;;;;;;4.50;2.58;;;;;;;;;;2070744;28;20026;-63
2022/08/09 05:37:38;;;;;;;4.40;2.40;;;;;;;;;;2072167;28;20022;-63
2022/08/09 05:38:57;;;;;;;4.07;2.70;;;;;;;;;;2071699;28;20038;-63
2022/08/09 05:40:17;;;;;;;6.53;2.53;;;;;;;;;;2072477;28;20038;-64
2022/08/09 05:41:36;;;;;;;6.20;2.60;;;;;;;;;;2071810;28;20025;-64
2022/08/09 05:42:56;;;;;;;2.63;2.28;;;;;;;;;;2071535;28;20026;-63
2022/08/09 05:44:15;;;;;;;6.15;2.53;;;;;;;;;;2072611;28;20026;-63
2022/08/09 05:45:34;;;;;;;8.23;2.58;;;;;;;;;;2070738;28;20498;-63
2022/08/09 05:46:52;;;;;;;3.35;2.60;;;;;;;;;;2069924;28;20494;-63
2022/08/09 05:48:12;;;;;;;3.65;2.30;;;;;;;;;;2071756;28;20042;-63
2022/08/09 05:49:30;;;;;;;6.43;2.50;;;;;;;;;;2072447;28;20034;-64
2022/08/09 05:50:49;;;;;;;4.03;2.50;;;;;;;;;;2071225;28;20041;-63
2022/08/09 05:52:08;;;;;;;3.58;2.20;;;;;;;;;;2071714;28;20508;-63
2022/08/09 05:53:27;;;;;;;3.88;2.30;;;;;;;;;;2072602;28;20026;-63
2022/08/09 05:54:46;;;;;;;3.65;2.00;;;;;;;;;;2073110;28;20025;-63
2022/08/09 05:56:05;;;;;;;6.75;2.22;;;;;;;;;;2073198;28;20018;-64
2022/08/09 05:57:24;;;;;;;3.58;2.53;;;;;;;;;;2072843;28;20105;-62
2022/08/09 05:58:43;;;;;;;5.15;2.10;;;;;;;;;;2071682;28;20046;-62
2022/08/09 06:00:06;;;;;;;3.05;2.70;;;;;;;;;;2071884;28;20438;-63
2022/08/09 06:01:26;;;;;;;2.80;2.20;;;;;;;;;;2071036;28;20034;-63
2022/08/09 06:02:45;;;;;;;3.20;2.58;;;;;;;;;;2071302;28;20061;-64
2022/08/09 06:04:04;;;;;;;5.97;2.25;;;;;;;;;;2068422;28;20038;-63
2022/08/09 06:05:27;;;;;;;3.80;2.40;;;;;;;;;;2071301;28;20046;-63
2022/08/09 06:06:46;;;;;;;5.45;2.17;;;;;;;;;;2070529;28;20387;-63
2022/08/09 06:08:05;;;;;;;6.63;2.38;;;;;;;;;;2073120;28;20083;-63
2022/08/09 06:09:24;;;;;;;3.33;1.80;;;;;;;;;;2070481;28;20046;-65
2022/08/09 06:10:43;;;;;;;3.45;2.25;;;;;;;;;;2070876;28;20035;-62
2022/08/09 06:12:02;;;;;;;5.53;2.47;;;;;;;;;;2071971;28;20034;-62
2022/08/09 06:13:22;;;;;;;3.22;2.03;;;;;;;;;;2071086;28;20022;-62
2022/08/09 06:14:41;;;;;;;2.97;2.50;;;;;;;;;;2070822;28;20034;-62
2022/08/09 06:16:03;;;;;;;5.38;2.40;;;;;;;;;;2072264;28;20046;-62
2022/08/09 06:17:21;;;;;;;5.68;2.28;;;;;;;;;;2072416;28;20116;-62
2022/08/09 06:18:40;;;;;;;3.63;2.10;;;;;;;;;;2071924;28;20046;-62
2022/08/09 06:19:59;;;;;;;4.43;2.40;;;;;;;;;;2069332;28;20041;-63
2022/08/09 06:21:18;;;;;;;5.82;2.33;;;;;;;;;;2071675;28;20053;-62
2022/08/09 06:22:38;;;;;;;3.75;2.30;;;;;;;;;;2072761;28;20030;-62
2022/08/09 06:23:56;;;;;;;4.03;1.92;;;;;;;;;;2071508;28;20022;-62
2022/08/09 06:25:15;;;;;;;3.65;2.05;;;;;;;;;;2071924;28;20033;-62
2022/08/09 06:26:37;;;;;;;2.30;1.92;;;;;;;;;;2071990;28;20029;-62
2022/08/09 06:27:56;;;;;;;3.72;1.70;;;;;;;;;;2073369;28;20124;-62
2022/08/09 06:29:16;;;;;;;2.72;1.92;;;;;;;;;;2072662;28;20065;-62
2022/08/09 06:30:35;;;;;;;2.72;2.45;;;;;;;;;;2073145;28;20061;-62
2022/08/09 06:31:54;;;;;;;5.18;2.75;;;;;;;;;;2073080;28;20042;-62
2022/08/09 06:33:13;;;;;;;4.28;1.95;;;;;;;;;;2072246;28;20075;-62
2022/08/09 06:34:32;;;;;;;4.00;2.33;;;;;;;;;;2069535;28;20042;-63
2022/08/09 06:35:51;;;;;;;5.72;2.03;;;;;;;;;;2072172;28;20482;-62
2022/08/09 06:37:10;;;;;;;2.20;1.95;;;;;;;;;;2080516;28;20045;-62
2022/08/09 06:38:28;;;;;;;13.27;2.17;;;;;;;;;;2075307;28;20026;-62
2022/08/09 06:39:47;;;;;;;2.10;1.83;;;;;;;;;;2071724;28;20026;-63
2022/08/09 06:41:06;;;;;;;2.22;2.03;;;;;;;;;;2072115;28;20033;-63
2022/08/09 06:42:25;;;;;;;2.85;2.20;;;;;;;;;;2070780;28;20021;-62
2022/08/09 06:43:45;;;;;;;3.17;1.92;;;;;;;;;;2071171;28;20018;-62
2022/08/09 06:45:04;;;;;;;6.45;2.03;;;;;;;;;;2072697;28;20033;-64
2022/08/09 06:46:23;;;;;;;6.68;1.75;;;;;;;;;;2072288;28;20026;-64
2022/08/09 06:47:41;;;;;;;4.90;1.80;;;;;;;;;;2071096;28;20026;-62
2022/08/09 06:49:00;;;;;;;1.60;1.50;;;;;;;;;;2068886;28;20529;-62
2022/08/09 06:50:19;;;;;;;2.10;1.88;;;;;;;;;;2072618;28;20042;-62
2022/08/09 06:51:38;;;;;;;4.47;2.17;;;;;;;;;;2072774;28;20030;-62
2022/08/09 06:52:59;;;;;;;1.80;1.70;;;;;;;;;;2072648;28;20026;-64
2022/08/09 06:54:18;;;;;;;4.05;2.03;;;;;;;;;;2071967;28;20029;-65
2022/08/09 06:55:38;;;;;;;3.53;1.65;;;;;;;;;;2073284;28;20030;-62
2022/08/09 06:56:56;;;;;;;7.25;1.80;;;;;;;;;;2073202;28;20931;-64
2022/08/09 06:58:15;;;;;;;2.25;1.60;;;;;;;;;;2072696;28;20030;-63
2022/08/09 06:59:34;;;;;;;4.57;1.38;;;;;;;;;;2070832;28;20490;-62
2022/08/09 07:00:53;;;;;;;2.85;1.52;;;;;;;;;;2071512;28;20486;-62
2022/08/09 07:02:12;;;;;;;2.70;1.20;;;;;;;;;;2072774;28;20030;-62
2022/08/09 07:03:33;;;;;;;2.78;1.55;;;;;;;;;;2072526;28;20034;-62
2022/08/09 07:04:52;;;;;;;2.13;1.42;;;;;;;;;;2071441;28;20037;-62
2022/08/09 07:06:11;;;;;;;2.75;1.73;;;;;;;;;;2072531;28;20033;-62
2022/08/09 07:07:31;;;;;;;3.13;1.58;;;;;;;;;;2073080;28;20029;-62
2022/08/09 07:08:50;;;;;;;2.05;1.73;;;;;;;;;;2072135;28;20062;-62
2022/08/09 07:10:09;;;;;;;10.68;2.38;;;;;;;;;;2072511;28;20065;-62
2022/08/09 07:11:28;;;;;;;3.00;1.60;;;;;;;;;;2072049;28;20029;-62
2022/08/09 07:12:48;;;;;;;2.55;1.48;;;;;;;;;;2072561;28;20506;-62
2022/08/09 07:14:06;;;;;;;2.60;2.08;;;;;;;;;;2073340;28;20113;-64
2022/08/09 07:15:26;;;;;;;1.63;1.52;;;;;;;;;;2071845;28;20038;-64
2022/08/09 07:16:45;;;;;;;3.17;1.85;;;;;;;;;;2070830;28;20030;-62
2022/08/09 07:18:04;;;;;;;5.65;1.60;;;;;;;;;;2072204;28;20453;-61
2022/08/09 07:19:22;;;;;;;2.38;1.77;;;;;;;;;;2071654;28;20029;-62
2022/08/09 07:20:41;;;;;;;2.47;1.70;;;;;;;;;;2071769;28;20058;-62
2022/08/09 07:22:00;;;;;;;3.72;1.42;;;;;;;;;;2072605;28;20043;-62
2022/08/09 07:23:19;;;;;;;4.38;1.75;;;;;;;;;;2072508;28;20034;-62
2022/08/09 07:24:38;;;;;;;3.70;1.48;;;;;;;;;;2070598;28;20022;-62
2022/08/09 07:25:57;;;;;;;2.17;1.50;;;;;;;;;;2071317;28;20029;-62
2022/08/09 07:27:16;;;;;;;1.48;1.38;;;;;;;;;;2070770;28;20378;-61
2022/08/09 07:28:35;;;;;;;2.72;1.75;;;;;;;;;;2070840;28;20038;-62
2022/08/09 07:29:54;;;;;;;1.67;1.48;;;;;;;;;;2071678;28;20034;-62
2022/08/09 07:31:13;;;;;;;1.77;1.20;;;;;;;;;;2069917;28;20061;-62
2022/08/09 07:32:32;;;;;;;1.98;1.48;;;;;;;;;;2072699;28;20026;-62
2022/08/09 07:33:51;;;;;;;1.65;1.20;;;;;;;;;;2072063;28;20026;-62
2022/08/09 07:35:11;;;;;;;4.43;1.70;;;;;;;;;;2070608;28;20039;-62
2022/08/09 07:36:31;;;;;;;2.00;1.48;;;;;;;;;;2074329;28;20453;-64
2022/08/09 07:37:50;;;;;;;1.65;1.40;;;;;;;;;;2073485;28;20117;-64
2022/08/09 07:39:08;;;;;;;1.92;1.70;;;;;;;;;;2072003;28;20030;-61
2022/08/09 07:40:27;;;;;;;2.33;1.40;;;;;;;;;;2070472;28;20034;-59
2022/08/09 07:41:46;;;;;;;1.33;1.23;;;;;;;;;;2070774;28;20121;-60
2022/08/09 07:43:05;;;;;;;1.48;1.33;;;;;;;;;;2068775;28;20030;-59
2022/08/09 07:44:24;;;;;;;4.95;1.33;;;;;;;;;;2069816;28;20141;-59
2022/08/09 07:45:43;;;;;;;3.13;1.45;;;;;;;;;;2071055;28;20030;-59
2022/08/09 07:47:02;;;;;;;3.83;1.50;;;;;;;;;;2071986;28;20042;-59
2022/08/09 07:48:21;;;;;;;2.15;1.52;;;;;;;;;;2071222;28;20430;-60
2022/08/09 07:49:40;;;;;;;1.70;1.60;;;;;;;;;;2071905;28;20034;-60
2022/08/09 07:50:59;;;;;;;2.63;1.60;;;;;;;;;;2071901;28;20043;-60
2022/08/09 07:52:19;;;;;;;1.50;1.40;;;;;;;;;;2072471;28;20030;-61
2022/08/09 07:53:38;;;;;;;4.05;1.55;;;;;;;;;;2072682;28;20399;-61
2022/08/09 07:54:57;;;;;;;1.90;1.25;;;;;;;;;;2072501;28;20112;-63
2022/08/09 07:56:16;;;;;;;3.85;1.50;;;;;;;;;;2071854;28;20494;-62
2022/08/09 07:57:35;;;;;;;3.05;1.40;;;;;;;;;;2072838;28;20034;-61
2022/08/09 07:58:54;;;;;;;2.00;1.10;;;;;;;;;;2070249;28;20026;-62
2022/08/09 08:00:17;;;;;;;4.60;1.60;;;;;;;;;;2070774;28;20034;-62